sensor_id;sensor_type;location;lat;lon;timestamp;temperature;humidity
23385;DHT22;11865;45.394;10.978;2023-01-28T00:01:07;3.40;99.90
23385;DHT22;11865;45.394;10.978;2023-01-28T00:03:34;3.30;99.90
23385;DHT22;11865;45.394;10.978;2023-01-28T00:06:21;3.30;99.90
23385;DHT22;11865;45.394;10.978;2023-01-28T00:08:49;3.30;99.90
23385;DHT22;11865;45.394;10.978;2023-01-28T00:11:16;3.30;99.90
23385;DHT22;11865;45.394;10.978;2023-01-28T00:13:44;3.30;99.90
23385;DHT22;11865;45.394;10.978;2023-01-28T00:16:11;3.40;99.90
23385;DHT22;11865;45.394;10.978;2023-01-28T00:18:39;3.70;99.90
23385;DHT22;11865;45.394;10.978;2023-01-28T00:21:08;3.90;98.10
23385;DHT22;11865;45.394;10.978;2023-01-28T00:23:37;4.10;97.50
23385;DHT22;11865;45.394;10.978;2023-01-28T00:26:08;4.20;96.70
23385;DHT22;11865;45.394;10.978;2023-01-28T00:28:38;4.30;96.70
23385;DHT22;11865;45.394;10.978;2023-01-28T00:31:07;4.40;96.50
23385;DHT22;11865;45.394;10.978;2023-01-28T00:33:36;4.50;96.10
23385;DHT22;11865;45.394;10.978;2023-01-28T00:36:04;4.60;95.80
23385;DHT22;11865;45.394;10.978;2023-01-28T00:38:33;4.60;95.70
23385;DHT22;11865;45.394;10.978;2023-01-28T00:41:12;4.60;95.10
23385;DHT22;11865;45.394;10.978;2023-01-28T00:43:41;4.70;94.90
23385;DHT22;11865;45.394;10.978;2023-01-28T00:46:10;4.70;94.80
23385;DHT22;11865;45.394;10.978;2023-01-28T00:48:39;4.70;94.60
23385;DHT22;11865;45.394;10.978;2023-01-28T00:51:09;4.80;94.60
23385;DHT22;11865;45.394;10.978;2023-01-28T00:53:37;4.80;94.40
23385;DHT22;11865;45.394;10.978;2023-01-28T00:56:07;4.90;94.30
23385;DHT22;11865;45.394;10.978;2023-01-28T00:58:35;4.90;94.30
23385;DHT22;11865;45.394;10.978;2023-01-28T01:01:14;4.80;96.20
23385;DHT22;11865;45.394;10.978;2023-01-28T01:03:42;4.70;96.10
23385;DHT22;11865;45.394;10.978;2023-01-28T01:06:12;4.60;96.70
23385;DHT22;11865;45.394;10.978;2023-01-28T01:08:39;4.60;98.40
23385;DHT22;11865;45.394;10.978;2023-01-28T01:11:10;4.60;96.10
23385;DHT22;11865;45.394;10.978;2023-01-28T01:13:38;4.50;97.30
23385;DHT22;11865;45.394;10.978;2023-01-28T01:16:14;4.70;95.50
23385;DHT22;11865;45.394;10.978;2023-01-28T01:18:43;4.70;95.50
23385;DHT22;11865;45.394;10.978;2023-01-28T01:21:15;4.80;99.20
23385;DHT22;11865;45.394;10.978;2023-01-28T01:23:45;4.70;97.00
23385;DHT22;11865;45.394;10.978;2023-01-28T01:26:13;4.60;96.80
23385;DHT22;11865;45.394;10.978;2023-01-28T01:28:40;4.50;96.20
23385;DHT22;11865;45.394;10.978;2023-01-28T01:31:16;4.50;96.70
23385;DHT22;11865;45.394;10.978;2023-01-28T01:33:46;4.60;99.10
23385;DHT22;11865;45.394;10.978;2023-01-28T01:36:15;4.40;99.90
23385;DHT22;11865;45.394;10.978;2023-01-28T01:38:45;4.20;99.90
23385;DHT22;11865;45.394;10.978;2023-01-28T01:41:30;4.00;99.90
23385;DHT22;11865;45.394;10.978;2023-01-28T01:44:00;4.00;99.00
23385;DHT22;11865;45.394;10.978;2023-01-28T01:46:42;4.00;99.60
23385;DHT22;11865;45.394;10.978;2023-01-28T01:49:25;4.10;99.20
23385;DHT22;11865;45.394;10.978;2023-01-28T01:51:56;4.10;99.60
23385;DHT22;11865;45.394;10.978;2023-01-28T01:54:27;4.20;97.10
23385;DHT22;11865;45.394;10.978;2023-01-28T01:56:57;4.30;99.20
23385;DHT22;11865;45.394;10.978;2023-01-28T01:59:27;4.20;99.90
23385;DHT22;11865;45.394;10.978;2023-01-28T02:01:57;4.20;98.00
23385;DHT22;11865;45.394;10.978;2023-01-28T02:04:40;4.30;96.30
23385;DHT22;11865;45.394;10.978;2023-01-28T02:07:09;4.50;95.70
23385;DHT22;11865;45.394;10.978;2023-01-28T02:09:39;4.60;96.10
23385;DHT22;11865;45.394;10.978;2023-01-28T02:12:11;4.70;95.00
23385;DHT22;11865;45.394;10.978;2023-01-28T02:14:57;4.70;94.70
23385;DHT22;11865;45.394;10.978;2023-01-28T02:17:26;4.70;95.20
23385;DHT22;11865;45.394;10.978;2023-01-28T02:19:58;4.80;95.50
23385;DHT22;11865;45.394;10.978;2023-01-28T02:31:27;4.60;96.20
23385;DHT22;11865;45.394;10.978;2023-01-28T02:37:08;4.90;95.00
23385;DHT22;11865;45.394;10.978;2023-01-28T02:39:46;4.90;95.60
23385;DHT22;11865;45.394;10.978;2023-01-28T02:42:22;4.80;98.50
23385;DHT22;11865;45.394;10.978;2023-01-28T02:44:52;4.70;96.90
23385;DHT22;11865;45.394;10.978;2023-01-28T02:47:19;4.60;96.60
23385;DHT22;11865;45.394;10.978;2023-01-28T02:50:11;4.60;98.20
23385;DHT22;11865;45.394;10.978;2023-01-28T02:55:57;4.50;96.30
23385;DHT22;11865;45.394;10.978;2023-01-28T03:01:32;4.10;99.90
23385;DHT22;11865;45.394;10.978;2023-01-28T03:04:19;4.00;99.90
23385;DHT22;11865;45.394;10.978;2023-01-28T03:06:54;3.80;99.90
23385;DHT22;11865;45.394;10.978;2023-01-28T03:09:23;3.40;99.90
23385;DHT22;11865;45.394;10.978;2023-01-28T03:12:11;3.70;99.70
23385;DHT22;11865;45.394;10.978;2023-01-28T03:15:17;4.10;98.20
23385;DHT22;11865;45.394;10.978;2023-01-28T03:18:05;4.20;98.80
23385;DHT22;11865;45.394;10.978;2023-01-28T03:24:02;4.30;99.60
23385;DHT22;11865;45.394;10.978;2023-01-28T03:27:09;4.30;99.50
23385;DHT22;11865;45.394;10.978;2023-01-28T03:30:10;4.20;99.60
23385;DHT22;11865;45.394;10.978;2023-01-28T03:33:03;4.10;99.70
23385;DHT22;11865;45.394;10.978;2023-01-28T03:35:49;4.20;99.30
23385;DHT22;11865;45.394;10.978;2023-01-28T03:38:35;4.20;99.00
23385;DHT22;11865;45.394;10.978;2023-01-28T03:41:12;4.10;98.80
23385;DHT22;11865;45.394;10.978;2023-01-28T03:43:40;4.00;99.30
23385;DHT22;11865;45.394;10.978;2023-01-28T03:46:09;4.00;99.40
23385;DHT22;11865;45.394;10.978;2023-01-28T03:48:36;4.00;99.50
23385;DHT22;11865;45.394;10.978;2023-01-28T03:51:06;4.00;99.00
23385;DHT22;11865;45.394;10.978;2023-01-28T03:53:33;4.00;98.90
23385;DHT22;11865;45.394;10.978;2023-01-28T03:56:01;4.00;98.70
23385;DHT22;11865;45.394;10.978;2023-01-28T03:58:29;3.90;98.50
23385;DHT22;11865;45.394;10.978;2023-01-28T04:01:13;4.00;98.40
23385;DHT22;11865;45.394;10.978;2023-01-28T04:03:41;4.00;98.40
23385;DHT22;11865;45.394;10.978;2023-01-28T04:06:13;4.00;98.30
23385;DHT22;11865;45.394;10.978;2023-01-28T04:09:01;4.10;98.20
23385;DHT22;11865;45.394;10.978;2023-01-28T04:11:40;4.10;97.90
23385;DHT22;11865;45.394;10.978;2023-01-28T04:14:08;4.10;98.00
23385;DHT22;11865;45.394;10.978;2023-01-28T04:16:47;4.20;97.90
23385;DHT22;11865;45.394;10.978;2023-01-28T04:19:17;4.20;98.00
23385;DHT22;11865;45.394;10.978;2023-01-28T04:21:45;4.20;97.80
23385;DHT22;11865;45.394;10.978;2023-01-28T04:24:13;4.20;98.10
23385;DHT22;11865;45.394;10.978;2023-01-28T04:26:42;4.20;97.90
23385;DHT22;11865;45.394;10.978;2023-01-28T04:29:09;4.10;97.70
23385;DHT22;11865;45.394;10.978;2023-01-28T04:31:38;4.10;98.00
23385;DHT22;11865;45.394;10.978;2023-01-28T04:34:41;4.10;98.10
23385;DHT22;11865;45.394;10.978;2023-01-28T04:37:34;4.00;97.90
23385;DHT22;11865;45.394;10.978;2023-01-28T04:40:34;4.00;99.40
23385;DHT22;11865;45.394;10.978;2023-01-28T04:43:08;3.60;99.90
23385;DHT22;11865;45.394;10.978;2023-01-28T04:45:59;3.20;99.90
23385;DHT22;11865;45.394;10.978;2023-01-28T04:48:41;3.00;99.90
23385;DHT22;11865;45.394;10.978;2023-01-28T04:51:19;2.90;99.90
23385;DHT22;11865;45.394;10.978;2023-01-28T04:54:16;2.80;99.90
23385;DHT22;11865;45.394;10.978;2023-01-28T04:56:43;2.70;99.90
23385;DHT22;11865;45.394;10.978;2023-01-28T04:59:11;2.60;99.90
23385;DHT22;11865;45.394;10.978;2023-01-28T05:01:38;2.70;99.90
23385;DHT22;11865;45.394;10.978;2023-01-28T05:04:06;2.80;99.90
23385;DHT22;11865;45.394;10.978;2023-01-28T05:06:37;2.80;99.90
23385;DHT22;11865;45.394;10.978;2023-01-28T05:09:09;2.80;99.90
23385;DHT22;11865;45.394;10.978;2023-01-28T05:11:36;2.70;99.90
23385;DHT22;11865;45.394;10.978;2023-01-28T05:14:05;2.80;99.90
23385;DHT22;11865;45.394;10.978;2023-01-28T05:17:02;2.70;99.90
23385;DHT22;11865;45.394;10.978;2023-01-28T05:19:30;2.60;99.90
23385;DHT22;11865;45.394;10.978;2023-01-28T05:21:58;2.60;99.90
23385;DHT22;11865;45.394;10.978;2023-01-28T05:24:31;2.60;99.90
23385;DHT22;11865;45.394;10.978;2023-01-28T05:26:59;2.70;99.90
23385;DHT22;11865;45.394;10.978;2023-01-28T05:29:26;2.60;99.90
23385;DHT22;11865;45.394;10.978;2023-01-28T05:31:54;2.40;99.90
23385;DHT22;11865;45.394;10.978;2023-01-28T05:34:22;2.10;99.90
23385;DHT22;11865;45.394;10.978;2023-01-28T05:36:50;2.10;99.90
23385;DHT22;11865;45.394;10.978;2023-01-28T05:39:43;2.20;99.90
23385;DHT22;11865;45.394;10.978;2023-01-28T05:42:10;2.40;99.90
23385;DHT22;11865;45.394;10.978;2023-01-28T05:44:43;2.30;99.90
23385;DHT22;11865;45.394;10.978;2023-01-28T05:47:37;2.40;99.90
23385;DHT22;11865;45.394;10.978;2023-01-28T05:50:40;2.30;99.90
23385;DHT22;11865;45.394;10.978;2023-01-28T05:53:14;2.00;99.90
23385;DHT22;11865;45.394;10.978;2023-01-28T05:55:47;2.00;99.90
23385;DHT22;11865;45.394;10.978;2023-01-28T05:58:16;2.10;99.90
23385;DHT22;11865;45.394;10.978;2023-01-28T06:00:44;1.80;99.90
23385;DHT22;11865;45.394;10.978;2023-01-28T06:03:13;1.60;99.90
23385;DHT22;11865;45.394;10.978;2023-01-28T06:05:42;1.70;99.90
23385;DHT22;11865;45.394;10.978;2023-01-28T06:08:10;1.90;99.90
23385;DHT22;11865;45.394;10.978;2023-01-28T06:10:38;2.10;99.90
23385;DHT22;11865;45.394;10.978;2023-01-28T06:13:05;2.40;99.90
23385;DHT22;11865;45.394;10.978;2023-01-28T06:15:50;2.50;99.90
23385;DHT22;11865;45.394;10.978;2023-01-28T06:18:47;2.30;99.90
23385;DHT22;11865;45.394;10.978;2023-01-28T06:21:14;1.90;99.90
23385;DHT22;11865;45.394;10.978;2023-01-28T06:23:42;1.90;99.90
23385;DHT22;11865;45.394;10.978;2023-01-28T06:26:09;2.10;99.90
23385;DHT22;11865;45.394;10.978;2023-01-28T06:28:40;2.30;99.90
23385;DHT22;11865;45.394;10.978;2023-01-28T06:38:32;1.60;99.90
23385;DHT22;11865;45.394;10.978;2023-01-28T06:41:00;1.20;99.90
23385;DHT22;11865;45.394;10.978;2023-01-28T06:45:57;1.30;99.90
23385;DHT22;11865;45.394;10.978;2023-01-28T06:48:25;1.80;99.90
23385;DHT22;11865;45.394;10.978;2023-01-28T06:50:54;2.10;99.90
23385;DHT22;11865;45.394;10.978;2023-01-28T06:53:21;2.00;99.90
23385;DHT22;11865;45.394;10.978;2023-01-28T06:55:49;2.30;99.90
23385;DHT22;11865;45.394;10.978;2023-01-28T06:58:16;2.10;99.90
23385;DHT22;11865;45.394;10.978;2023-01-28T07:00:44;1.70;99.90
23385;DHT22;11865;45.394;10.978;2023-01-28T07:03:12;1.50;99.90
23385;DHT22;11865;45.394;10.978;2023-01-28T07:05:39;1.50;99.90
23385;DHT22;11865;45.394;10.978;2023-01-28T07:08:07;1.70;99.90
23385;DHT22;11865;45.394;10.978;2023-01-28T07:10:34;1.70;99.90
23385;DHT22;11865;45.394;10.978;2023-01-28T07:13:02;1.80;99.90
23385;DHT22;11865;45.394;10.978;2023-01-28T07:15:30;1.80;99.90
23385;DHT22;11865;45.394;10.978;2023-01-28T07:17:57;1.70;99.90
23385;DHT22;11865;45.394;10.978;2023-01-28T07:20:26;1.60;99.90
23385;DHT22;11865;45.394;10.978;2023-01-28T07:22:53;1.50;99.90
23385;DHT22;11865;45.394;10.978;2023-01-28T07:25:21;1.50;99.90
23385;DHT22;11865;45.394;10.978;2023-01-28T07:27:50;1.60;99.90
23385;DHT22;11865;45.394;10.978;2023-01-28T07:30:19;1.50;99.90
23385;DHT22;11865;45.394;10.978;2023-01-28T07:32:52;1.50;99.90
23385;DHT22;11865;45.394;10.978;2023-01-28T07:35:21;1.80;99.90
23385;DHT22;11865;45.394;10.978;2023-01-28T07:37:56;1.90;99.90
23385;DHT22;11865;45.394;10.978;2023-01-28T07:40:25;1.90;99.90
23385;DHT22;11865;45.394;10.978;2023-01-28T07:42:53;2.30;99.90
23385;DHT22;11865;45.394;10.978;2023-01-28T07:45:23;2.80;99.90
23385;DHT22;11865;45.394;10.978;2023-01-28T07:47:57;3.00;99.90
23385;DHT22;11865;45.394;10.978;2023-01-28T07:50:25;3.00;99.90
23385;DHT22;11865;45.394;10.978;2023-01-28T07:52:52;3.30;99.90
23385;DHT22;11865;45.394;10.978;2023-01-28T07:55:20;3.60;99.90
23385;DHT22;11865;45.394;10.978;2023-01-28T07:57:53;3.80;99.90
23385;DHT22;11865;45.394;10.978;2023-01-28T08:00:22;4.00;99.90
23385;DHT22;11865;45.394;10.978;2023-01-28T08:02:55;4.10;99.90
23385;DHT22;11865;45.394;10.978;2023-01-28T08:05:23;4.20;99.90
23385;DHT22;11865;45.394;10.978;2023-01-28T08:07:53;4.10;99.90
23385;DHT22;11865;45.394;10.978;2023-01-28T08:10:21;4.20;99.90
23385;DHT22;11865;45.394;10.978;2023-01-28T08:12:53;4.20;99.90
23385;DHT22;11865;45.394;10.978;2023-01-28T08:15:21;4.20;99.90
23385;DHT22;11865;45.394;10.978;2023-01-28T08:17:49;4.20;99.90
23385;DHT22;11865;45.394;10.978;2023-01-28T08:20:16;4.20;99.90
23385;DHT22;11865;45.394;10.978;2023-01-28T08:22:44;4.40;99.90
23385;DHT22;11865;45.394;10.978;2023-01-28T08:25:12;4.50;99.90
23385;DHT22;11865;45.394;10.978;2023-01-28T08:27:39;4.70;99.90
23385;DHT22;11865;45.394;10.978;2023-01-28T08:30:08;4.70;99.90
23385;DHT22;11865;45.394;10.978;2023-01-28T08:32:36;4.70;99.90
23385;DHT22;11865;45.394;10.978;2023-01-28T08:35:04;4.80;99.90
23385;DHT22;11865;45.394;10.978;2023-01-28T08:37:33;4.70;99.70
23385;DHT22;11865;45.394;10.978;2023-01-28T08:40:01;4.70;99.90
23385;DHT22;11865;45.394;10.978;2023-01-28T08:42:29;4.60;99.30
23385;DHT22;11865;45.394;10.978;2023-01-28T08:44:56;4.90;99.90
23385;DHT22;11865;45.394;10.978;2023-01-28T08:47:24;5.00;98.90
23385;DHT22;11865;45.394;10.978;2023-01-28T08:49:51;5.10;99.70
23385;DHT22;11865;45.394;10.978;2023-01-28T08:52:19;5.20;99.20
23385;DHT22;11865;45.394;10.978;2023-01-28T08:54:46;5.10;99.20
23385;DHT22;11865;45.394;10.978;2023-01-28T08:57:14;5.00;99.50
23385;DHT22;11865;45.394;10.978;2023-01-28T08:59:41;5.20;99.50
23385;DHT22;11865;45.394;10.978;2023-01-28T09:02:13;5.30;98.80
23385;DHT22;11865;45.394;10.978;2023-01-28T09:04:57;5.30;99.20
23385;DHT22;11865;45.394;10.978;2023-01-28T09:07:25;5.10;99.50
23385;DHT22;11865;45.394;10.978;2023-01-28T09:09:52;5.30;99.20
23385;DHT22;11865;45.394;10.978;2023-01-28T09:12:20;5.40;99.50
23385;DHT22;11865;45.394;10.978;2023-01-28T09:14:47;5.50;98.70
23385;DHT22;11865;45.394;10.978;2023-01-28T09:17:15;5.30;98.80
23385;DHT22;11865;45.394;10.978;2023-01-28T09:19:42;5.50;98.30
23385;DHT22;11865;45.394;10.978;2023-01-28T09:22:10;5.40;98.10
23385;DHT22;11865;45.394;10.978;2023-01-28T09:24:37;5.50;98.20
23385;DHT22;11865;45.394;10.978;2023-01-28T09:27:06;5.60;97.50
23385;DHT22;11865;45.394;10.978;2023-01-28T09:29:34;5.70;98.30
23385;DHT22;11865;45.394;10.978;2023-01-28T09:32:01;5.80;97.30
23385;DHT22;11865;45.394;10.978;2023-01-28T09:34:29;5.80;95.60
23385;DHT22;11865;45.394;10.978;2023-01-28T09:36:57;6.00;96.70
23385;DHT22;11865;45.394;10.978;2023-01-28T09:39:24;6.00;95.70
23385;DHT22;11865;45.394;10.978;2023-01-28T09:47:51;6.00;94.70
23385;DHT22;11865;45.394;10.978;2023-01-28T09:50:36;6.20;95.00
23385;DHT22;11865;45.394;10.978;2023-01-28T09:53:28;6.30;95.00
23385;DHT22;11865;45.394;10.978;2023-01-28T09:56:02;6.30;95.60
23385;DHT22;11865;45.394;10.978;2023-01-28T09:58:30;6.10;95.10
23385;DHT22;11865;45.394;10.978;2023-01-28T10:01:33;6.10;94.70
23385;DHT22;11865;45.394;10.978;2023-01-28T10:17:30;6.10;96.50
23385;DHT22;11865;45.394;10.978;2023-01-28T10:20:21;6.10;96.20
23385;DHT22;11865;45.394;10.978;2023-01-28T10:22:55;6.20;96.10
23385;DHT22;11865;45.394;10.978;2023-01-28T10:25:27;6.30;96.10
23385;DHT22;11865;45.394;10.978;2023-01-28T10:27:56;6.50;95.10
23385;DHT22;11865;45.394;10.978;2023-01-28T10:30:26;6.70;95.10
23385;DHT22;11865;45.394;10.978;2023-01-28T10:33:17;6.60;93.00
23385;DHT22;11865;45.394;10.978;2023-01-28T10:35:45;6.50;93.20
23385;DHT22;11865;45.394;10.978;2023-01-28T10:38:17;6.60;93.00
23385;DHT22;11865;45.394;10.978;2023-01-28T10:40:45;6.60;92.90
23385;DHT22;11865;45.394;10.978;2023-01-28T10:43:16;6.60;93.60
23385;DHT22;11865;45.394;10.978;2023-01-28T10:46:13;6.70;93.00
23385;DHT22;11865;45.394;10.978;2023-01-28T10:51:32;6.90;95.20
23385;DHT22;11865;45.394;10.978;2023-01-28T10:54:00;6.90;94.60
23385;DHT22;11865;45.394;10.978;2023-01-28T10:56:32;6.90;94.20
23385;DHT22;11865;45.394;10.978;2023-01-28T10:59:05;6.80;95.50
23385;DHT22;11865;45.394;10.978;2023-01-28T11:04:25;6.80;93.80
23385;DHT22;11865;45.394;10.978;2023-01-28T11:07:02;6.70;94.10
23385;DHT22;11865;45.394;10.978;2023-01-28T11:09:35;6.70;93.70
23385;DHT22;11865;45.394;10.978;2023-01-28T11:12:11;7.00;93.80
23385;DHT22;11865;45.394;10.978;2023-01-28T11:14:52;7.20;94.20
23385;DHT22;11865;45.394;10.978;2023-01-28T11:17:22;7.40;94.00
23385;DHT22;11865;45.394;10.978;2023-01-28T11:19:57;7.20;92.90
23385;DHT22;11865;45.394;10.978;2023-01-28T11:22:51;7.10;93.50
23385;DHT22;11865;45.394;10.978;2023-01-28T11:25:32;7.10;93.40
23385;DHT22;11865;45.394;10.978;2023-01-28T11:28:03;7.00;92.60
23385;DHT22;11865;45.394;10.978;2023-01-28T11:30:34;7.00;92.60
23385;DHT22;11865;45.394;10.978;2023-01-28T11:35:34;7.10;92.00
23385;DHT22;11865;45.394;10.978;2023-01-28T11:38:02;7.30;93.00
23385;DHT22;11865;45.394;10.978;2023-01-28T11:40:29;7.30;92.50
23385;DHT22;11865;45.394;10.978;2023-01-28T11:42:57;7.20;93.10
23385;DHT22;11865;45.394;10.978;2023-01-28T12:02:44;7.70;92.00
23385;DHT22;11865;45.394;10.978;2023-01-28T12:11:10;7.90;91.70
23385;DHT22;11865;45.394;10.978;2023-01-28T12:14:24;7.90;90.90
23385;DHT22;11865;45.394;10.978;2023-01-28T12:17:20;7.90;90.10
23385;DHT22;11865;45.394;10.978;2023-01-28T12:45:26;8.30;89.40
23385;DHT22;11865;45.394;10.978;2023-01-28T12:48:13;8.30;90.40
23385;DHT22;11865;45.394;10.978;2023-01-28T12:50:54;8.30;87.90
23385;DHT22;11865;45.394;10.978;2023-01-28T12:53:45;8.20;88.90
23385;DHT22;11865;45.394;10.978;2023-01-28T12:56:17;8.30;90.40
23385;DHT22;11865;45.394;10.978;2023-01-28T13:01:26;8.40;91.20
23385;DHT22;11865;45.394;10.978;2023-01-28T13:06:57;8.40;88.30
23385;DHT22;11865;45.394;10.978;2023-01-28T13:09:27;8.50;87.90
23385;DHT22;11865;45.394;10.978;2023-01-28T13:11:57;8.70;85.20
23385;DHT22;11865;45.394;10.978;2023-01-28T13:14:30;8.90;90.10
23385;DHT22;11865;45.394;10.978;2023-01-28T13:17:22;8.80;82.60
23385;DHT22;11865;45.394;10.978;2023-01-28T13:19:50;8.80;88.50
23385;DHT22;11865;45.394;10.978;2023-01-28T13:22:29;8.80;85.90
23385;DHT22;11865;45.394;10.978;2023-01-28T13:25:10;8.70;86.40
23385;DHT22;11865;45.394;10.978;2023-01-28T13:27:40;8.70;90.00
23385;DHT22;11865;45.394;10.978;2023-01-28T13:30:31;8.60;87.20
23385;DHT22;11865;45.394;10.978;2023-01-28T13:33:04;8.50;84.20
23385;DHT22;11865;45.394;10.978;2023-01-28T13:35:38;8.60;85.20
23385;DHT22;11865;45.394;10.978;2023-01-28T13:38:09;8.60;87.90
23385;DHT22;11865;45.394;10.978;2023-01-28T13:40:40;8.60;85.10
23385;DHT22;11865;45.394;10.978;2023-01-28T13:46:12;8.70;87.70
23385;DHT22;11865;45.394;10.978;2023-01-28T13:48:54;8.60;88.90
23385;DHT22;11865;45.394;10.978;2023-01-28T13:51:25;8.50;84.70
23385;DHT22;11865;45.394;10.978;2023-01-28T13:56:54;8.50;83.10
23385;DHT22;11865;45.394;10.978;2023-01-28T13:59:48;8.80;83.40
23385;DHT22;11865;45.394;10.978;2023-01-28T14:05:53;8.90;82.70
23385;DHT22;11865;45.394;10.978;2023-01-28T14:14:34;8.90;86.60
23385;DHT22;11865;45.394;10.978;2023-01-28T14:19:40;8.70;84.80
23385;DHT22;11865;45.394;10.978;2023-01-28T14:22:12;8.70;82.70
23385;DHT22;11865;45.394;10.978;2023-01-28T14:24:42;8.90;84.20
23385;DHT22;11865;45.394;10.978;2023-01-28T14:30:10;8.90;84.90
23385;DHT22;11865;45.394;10.978;2023-01-28T14:32:48;8.80;87.60
23385;DHT22;11865;45.394;10.978;2023-01-28T14:35:28;8.60;84.50
23385;DHT22;11865;45.394;10.978;2023-01-28T14:37:57;8.80;89.10
23385;DHT22;11865;45.394;10.978;2023-01-28T14:40:27;8.80;88.60
23385;DHT22;11865;45.394;10.978;2023-01-28T14:42:57;8.80;85.60
23385;DHT22;11865;45.394;10.978;2023-01-28T14:57:03;9.00;82.70
23385;DHT22;11865;45.394;10.978;2023-01-28T15:02:19;8.90;85.70
23385;DHT22;11865;45.394;10.978;2023-01-28T15:04:47;8.80;87.10
23385;DHT22;11865;45.394;10.978;2023-01-28T15:07:25;8.70;85.40
23385;DHT22;11865;45.394;10.978;2023-01-28T15:10:06;8.60;84.90
23385;DHT22;11865;45.394;10.978;2023-01-28T15:12:43;8.50;85.00
23385;DHT22;11865;45.394;10.978;2023-01-28T15:15:22;8.40;87.90
23385;DHT22;11865;45.394;10.978;2023-01-28T15:17:51;8.30;87.80
23385;DHT22;11865;45.394;10.978;2023-01-28T15:20:22;8.20;87.40
23385;DHT22;11865;45.394;10.978;2023-01-28T15:22:51;8.20;86.80
23385;DHT22;11865;45.394;10.978;2023-01-28T15:25:21;8.20;88.00
23385;DHT22;11865;45.394;10.978;2023-01-28T15:27:51;8.20;88.40
23385;DHT22;11865;45.394;10.978;2023-01-28T15:30:22;8.20;88.60
23385;DHT22;11865;45.394;10.978;2023-01-28T15:33:02;8.20;90.10
23385;DHT22;11865;45.394;10.978;2023-01-28T15:35:31;8.20;87.80
23385;DHT22;11865;45.394;10.978;2023-01-28T15:37:59;8.20;90.10
23385;DHT22;11865;45.394;10.978;2023-01-28T15:40:28;8.10;89.10
23385;DHT22;11865;45.394;10.978;2023-01-28T15:42:56;8.10;88.90
23385;DHT22;11865;45.394;10.978;2023-01-28T15:45:27;8.00;88.50
23385;DHT22;11865;45.394;10.978;2023-01-28T15:48:03;8.10;89.80
23385;DHT22;11865;45.394;10.978;2023-01-28T15:50:32;8.00;91.70
23385;DHT22;11865;45.394;10.978;2023-01-28T15:53:00;7.90;90.80
23385;DHT22;11865;45.394;10.978;2023-01-28T15:55:29;7.80;91.70
23385;DHT22;11865;45.394;10.978;2023-01-28T15:58:18;7.80;92.40
23385;DHT22;11865;45.394;10.978;2023-01-28T16:00:47;7.70;92.50
23385;DHT22;11865;45.394;10.978;2023-01-28T16:03:21;7.50;92.70
23385;DHT22;11865;45.394;10.978;2023-01-28T16:05:59;7.40;93.90
23385;DHT22;11865;45.394;10.978;2023-01-28T16:08:43;7.20;93.80
23385;DHT22;11865;45.394;10.978;2023-01-28T16:11:12;7.00;94.50
23385;DHT22;11865;45.394;10.978;2023-01-28T16:13:46;6.60;95.40
23385;DHT22;11865;45.394;10.978;2023-01-28T16:16:14;6.40;95.40
23385;DHT22;11865;45.394;10.978;2023-01-28T16:18:45;6.30;96.20
23385;DHT22;11865;45.394;10.978;2023-01-28T16:21:49;6.10;96.10
23385;DHT22;11865;45.394;10.978;2023-01-28T16:24:28;6.00;96.70
23385;DHT22;11865;45.394;10.978;2023-01-28T16:27:01;5.90;97.30
23385;DHT22;11865;45.394;10.978;2023-01-28T16:29:30;5.80;97.00
23385;DHT22;11865;45.394;10.978;2023-01-28T16:31:59;5.80;97.30
23385;DHT22;11865;45.394;10.978;2023-01-28T16:34:27;5.60;97.50
23385;DHT22;11865;45.394;10.978;2023-01-28T16:36:58;5.50;98.00
23385;DHT22;11865;45.394;10.978;2023-01-28T16:39:26;5.30;98.70
23385;DHT22;11865;45.394;10.978;2023-01-28T16:41:54;5.30;98.60
23385;DHT22;11865;45.394;10.978;2023-01-28T16:44:23;5.20;98.70
23385;DHT22;11865;45.394;10.978;2023-01-28T16:46:50;5.50;96.60
23385;DHT22;11865;45.394;10.978;2023-01-28T16:49:18;5.60;97.60
23385;DHT22;11865;45.394;10.978;2023-01-28T16:51:45;5.60;97.90
23385;DHT22;11865;45.394;10.978;2023-01-28T16:54:15;5.40;98.30
23385;DHT22;11865;45.394;10.978;2023-01-28T16:56:43;5.10;99.00
23385;DHT22;11865;45.394;10.978;2023-01-28T16:59:14;5.00;99.30
23385;DHT22;11865;45.394;10.978;2023-01-28T17:01:43;5.20;97.70
23385;DHT22;11865;45.394;10.978;2023-01-28T17:04:11;5.30;98.60
23385;DHT22;11865;45.394;10.978;2023-01-28T17:06:43;5.30;96.80
23385;DHT22;11865;45.394;10.978;2023-01-28T17:09:12;5.40;97.30
23385;DHT22;11865;45.394;10.978;2023-01-28T17:11:40;5.30;97.30
23385;DHT22;11865;45.394;10.978;2023-01-28T17:14:09;5.40;96.60
23385;DHT22;11865;45.394;10.978;2023-01-28T17:16:37;5.50;96.60
23385;DHT22;11865;45.394;10.978;2023-01-28T17:19:05;5.40;96.70
23385;DHT22;11865;45.394;10.978;2023-01-28T17:21:33;5.40;96.70
23385;DHT22;11865;45.394;10.978;2023-01-28T17:24:00;5.00;99.10
23385;DHT22;11865;45.394;10.978;2023-01-28T17:26:29;4.60;99.90
23385;DHT22;11865;45.394;10.978;2023-01-28T17:28:57;4.20;99.90
23385;DHT22;11865;45.394;10.978;2023-01-28T17:31:25;4.00;99.90
23385;DHT22;11865;45.394;10.978;2023-01-28T17:33:57;3.70;99.90
23385;DHT22;11865;45.394;10.978;2023-01-28T17:36:25;3.50;99.90
23385;DHT22;11865;45.394;10.978;2023-01-28T17:38:54;3.40;99.90
23385;DHT22;11865;45.394;10.978;2023-01-28T17:41:21;3.20;99.90
23385;DHT22;11865;45.394;10.978;2023-01-28T17:43:50;3.00;99.90
23385;DHT22;11865;45.394;10.978;2023-01-28T17:46:19;2.90;99.90
23385;DHT22;11865;45.394;10.978;2023-01-28T17:48:46;2.90;99.90
23385;DHT22;11865;45.394;10.978;2023-01-28T17:51:14;2.80;99.90
23385;DHT22;11865;45.394;10.978;2023-01-28T17:53:50;2.80;99.90
23385;DHT22;11865;45.394;10.978;2023-01-28T17:56:20;2.80;99.90
23385;DHT22;11865;45.394;10.978;2023-01-28T17:58:52;3.00;99.90
23385;DHT22;11865;45.394;10.978;2023-01-28T18:01:21;3.00;99.90
23385;DHT22;11865;45.394;10.978;2023-01-28T18:03:50;3.00;99.90
23385;DHT22;11865;45.394;10.978;2023-01-28T18:06:17;3.00;99.90
23385;DHT22;11865;45.394;10.978;2023-01-28T18:08:45;3.40;99.90
23385;DHT22;11865;45.394;10.978;2023-01-28T18:11:16;3.80;99.90
23385;DHT22;11865;45.394;10.978;2023-01-28T18:13:44;4.20;99.90
23385;DHT22;11865;45.394;10.978;2023-01-28T18:16:14;4.30;99.90
23385;DHT22;11865;45.394;10.978;2023-01-28T18:18:43;4.60;98.90
23385;DHT22;11865;45.394;10.978;2023-01-28T18:21:37;4.80;98.20
23385;DHT22;11865;45.394;10.978;2023-01-28T18:24:25;5.00;98.00
23385;DHT22;11865;45.394;10.978;2023-01-28T18:26:55;5.00;97.90
23385;DHT22;11865;45.394;10.978;2023-01-28T18:29:28;5.00;98.00
23385;DHT22;11865;45.394;10.978;2023-01-28T18:31:57;5.00;98.00
23385;DHT22;11865;45.394;10.978;2023-01-28T18:34:27;5.10;97.80